sensor_id;sensor_type;location;lat;lon;timestamp;pressure;altitude;pressure_sealevel;temperature;humidity
70229;BME280;57617;51.988;5.854;2022-09-09T00:04:30;100325.13;;;18.28;72.42
70229;BME280;57617;51.988;5.854;2022-09-09T00:07:13;100327.53;;;18.29;72.55
70229;BME280;57617;51.988;5.854;2022-09-09T00:09:47;100318.44;;;18.34;71.99
70229;BME280;57617;51.988;5.854;2022-09-09T00:15:16;100315.97;;;18.33;72.58
70229;BME280;57617;51.988;5.854;2022-09-09T00:18:07;100311.56;;;18.32;72.50
70229;BME280;57617;51.988;5.854;2022-09-09T00:20:44;100309.66;;;18.32;72.52
70229;BME280;57617;51.988;5.854;2022-09-09T00:23:17;100307.19;;;18.31;72.13
70229;BME280;57617;51.988;5.854;2022-09-09T00:26:06;100310.47;;;18.33;72.79
70229;BME280;57617;51.988;5.854;2022-09-09T00:28:39;100307.19;;;18.31;72.37
70229;BME280;57617;51.988;5.854;2022-09-09T00:31:16;100312.69;;;18.31;72.75
70229;BME280;57617;51.988;5.854;2022-09-09T00:33:44;100315.97;;;18.33;72.21
70229;BME280;57617;51.988;5.854;2022-09-09T00:36:13;100317.59;;;18.34;72.41
70229;BME280;57617;51.988;5.854;2022-09-09T00:38:45;100314.56;;;18.35;72.20
70229;BME280;57617;51.988;5.854;2022-09-09T00:41:22;100307.94;;;18.36;72.30
70229;BME280;57617;51.988;5.854;2022-09-09T00:44:00;100310.47;;;18.33;72.45
70229;BME280;57617;51.988;5.854;2022-09-09T00:49:38;100304.97;;;18.33;72.02
70229;BME280;57617;51.988;5.854;2022-09-09T00:55:21;100304.16;;;18.32;72.42
70229;BME280;57617;51.988;5.854;2022-09-09T00:57:51;100301.69;;;18.31;72.08
70229;BME280;57617;51.988;5.854;2022-09-09T01:00:27;100296.78;;;18.27;72.08
70229;BME280;57617;51.988;5.854;2022-09-09T01:03:03;100296.78;;;18.27;72.42
70229;BME280;57617;51.988;5.854;2022-09-09T01:07:58;100288.03;;;18.26;72.06
70229;BME280;57617;51.988;5.854;2022-09-09T01:10:50;100290.78;;;18.26;72.71
70229;BME280;57617;51.988;5.854;2022-09-09T01:13:27;100292.50;;;18.22;72.57
70229;BME280;57617;51.988;5.854;2022-09-09T01:15:57;100296.59;;;18.24;72.16
70229;BME280;57617;51.988;5.854;2022-09-09T01:18:27;100299.34;;;18.24;72.30
70229;BME280;57617;51.988;5.854;2022-09-09T01:21:19;100302.38;;;18.23;72.46
70229;BME280;57617;51.988;5.854;2022-09-09T01:26:36;100302.56;;;18.13;71.99
70229;BME280;57617;51.988;5.854;2022-09-09T01:29:07;100302.97;;;18.06;71.83
70229;BME280;57617;51.988;5.854;2022-09-09T01:31:39;100289.47;;;17.91;71.86
70229;BME280;57617;51.988;5.854;2022-09-09T01:34:11;100306.09;;;17.99;71.77
70229;BME280;57617;51.988;5.854;2022-09-09T01:36:44;100301.22;;;17.97;71.92
70229;BME280;57617;51.988;5.854;2022-09-09T01:39:12;100304.47;;;17.98;71.61
70229;BME280;57617;51.988;5.854;2022-09-09T01:41:38;100304.47;;;17.98;71.89
70229;BME280;57617;51.988;5.854;2022-09-09T01:44:05;100304.47;;;17.98;71.79
70229;BME280;57617;51.988;5.854;2022-09-09T01:46:31;100293.56;;;17.93;71.75
70229;BME280;57617;51.988;5.854;2022-09-09T01:48:57;100297.13;;;17.94;71.83
70229;BME280;57617;51.988;5.854;2022-09-09T01:51:24;100298.56;;;17.92;71.78
70229;BME280;57617;51.988;5.854;2022-09-09T01:53:49;100295.81;;;17.92;71.55
70229;BME280;57617;51.988;5.854;2022-09-09T02:04:23;100300.88;;;17.85;72.08
70229;BME280;57617;51.988;5.854;2022-09-09T02:06:55;100294.34;;;17.81;71.69
70229;BME280;57617;51.988;5.854;2022-09-09T02:09:24;100294.66;;;17.79;71.74
70229;BME280;57617;51.988;5.854;2022-09-09T02:11:55;100293.31;;;17.77;71.77
70229;BME280;57617;51.988;5.854;2022-09-09T02:14:28;100293.03;;;17.78;71.74
70229;BME280;57617;51.988;5.854;2022-09-09T02:16:57;100286.69;;;17.77;71.97
70229;BME280;57617;51.988;5.854;2022-09-09T02:19:31;100287.31;;;17.75;71.80
70229;BME280;57617;51.988;5.854;2022-09-09T02:21:59;100276.72;;;17.68;71.60
70229;BME280;57617;51.988;5.854;2022-09-09T02:24:27;100276.09;;;17.71;71.66
70229;BME280;57617;51.988;5.854;2022-09-09T02:26:54;100283.53;;;17.71;71.88
70229;BME280;57617;51.988;5.854;2022-09-09T02:29:29;100278.03;;;17.71;72.02
70229;BME280;57617;51.988;5.854;2022-09-09T02:31:59;100276.41;;;17.70;71.93
70229;BME280;57617;51.988;5.854;2022-09-09T02:34:28;100278.63;;;17.67;71.71
70229;BME280;57617;51.988;5.854;2022-09-09T02:36:57;100276.16;;;17.66;71.82
70229;BME280;57617;51.988;5.854;2022-09-09T02:39:25;100280.66;;;17.62;71.78
70229;BME280;57617;51.988;5.854;2022-09-09T02:41:50;100286.44;;;17.61;71.87
70229;BME280;57617;51.988;5.854;2022-09-09T02:44:17;100273.28;;;17.58;71.82
70229;BME280;57617;51.988;5.854;2022-09-09T02:47:11;100274.41;;;17.57;72.45
70229;BME280;57617;51.988;5.854;2022-09-09T02:49:56;100270.03;;;17.56;72.24
70229;BME280;57617;51.988;5.854;2022-09-09T02:55:17;100261.59;;;17.52;72.05
70229;BME280;57617;51.988;5.854;2022-09-09T02:57:45;100264.34;;;17.52;71.98
70229;BME280;57617;51.988;5.854;2022-09-09T03:00:13;100260.78;;;17.52;72.18
70229;BME280;57617;51.988;5.854;2022-09-09T03:02:38;100259.22;;;17.46;72.22
70229;BME280;57617;51.988;5.854;2022-09-09T03:05:05;100269.50;;;17.53;71.94
70229;BME280;57617;51.988;5.854;2022-09-09T03:07:30;100264.44;;;17.47;71.75
70229;BME280;57617;51.988;5.854;2022-09-09T03:09:55;100271.84;;;17.47;72.14
70229;BME280;57617;51.988;5.854;2022-09-09T03:12:20;100278.44;;;17.46;72.06
70229;BME280;57617;51.988;5.854;2022-09-09T03:14:46;100278.44;;;17.46;72.21
70229;BME280;57617;51.988;5.854;2022-09-09T03:17:12;100271.63;;;17.43;72.05
70229;BME280;57617;51.988;5.854;2022-09-09T03:19:37;100273.53;;;17.42;71.97
70229;BME280;57617;51.988;5.854;2022-09-09T03:22:03;100277.41;;;17.42;72.19
70229;BME280;57617;51.988;5.854;2022-09-09T03:24:29;100279.03;;;17.42;72.31
70229;BME280;57617;51.988;5.854;2022-09-09T03:26:55;100265.09;;;17.39;72.52
70229;BME280;57617;51.988;5.854;2022-09-09T03:29:20;100283.09;;;17.45;72.50
70229;BME280;57617;51.988;5.854;2022-09-09T03:31:46;100282.31;;;17.45;72.48
70229;BME280;57617;51.988;5.854;2022-09-09T03:34:11;100290.00;;;17.42;72.54
70229;BME280;57617;51.988;5.854;2022-09-09T03:36:38;100265.69;;;17.36;72.35
70229;BME280;57617;51.988;5.854;2022-09-09T03:39:03;100274.94;;;17.40;72.56
70229;BME280;57617;51.988;5.854;2022-09-09T03:41:30;100277.16;;;17.38;72.41
70229;BME280;57617;51.988;5.854;2022-09-09T03:43:55;100279.91;;;17.38;72.49
70229;BME280;57617;51.988;5.854;2022-09-09T03:46:22;100284.56;;;17.37;72.65
70229;BME280;57617;51.988;5.854;2022-09-09T03:48:48;100279.97;;;17.33;72.48
70229;BME280;57617;51.988;5.854;2022-09-09T03:51:14;100272.34;;;17.30;72.52
70229;BME280;57617;51.988;5.854;2022-09-09T03:53:40;100276.50;;;17.27;72.51
70229;BME280;57617;51.988;5.854;2022-09-09T03:56:06;100281.91;;;17.32;72.38
70229;BME280;57617;51.988;5.854;2022-09-09T03:58:36;100280.81;;;17.33;72.74
70229;BME280;57617;51.988;5.854;2022-09-09T04:01:04;100275.81;;;17.35;72.57
70229;BME280;57617;51.988;5.854;2022-09-09T04:03:30;100274.72;;;17.36;72.61
70229;BME280;57617;51.988;5.854;2022-09-09T04:05:58;100284.91;;;17.36;72.75
70229;BME280;57617;51.988;5.854;2022-09-09T04:08:23;100282.16;;;17.36;72.74
70229;BME280;57617;51.988;5.854;2022-09-09T04:10:52;100287.31;;;17.37;72.58
70229;BME280;57617;51.988;5.854;2022-09-09T04:13:18;100278.03;;;17.39;72.67
70229;BME280;57617;51.988;5.854;2022-09-09T04:15:53;100275.53;;;17.37;72.80
70229;BME280;57617;51.988;5.854;2022-09-09T04:18:19;100270.03;;;17.37;72.80
70229;BME280;57617;51.988;5.854;2022-09-09T04:20:52;100268.66;;;17.40;72.94
70229;BME280;57617;51.988;5.854;2022-09-09T04:23:19;100267.53;;;17.41;73.02
70229;BME280;57617;51.988;5.854;2022-09-09T04:25:53;100257.69;;;17.40;72.92
70229;BME280;57617;51.988;5.854;2022-09-09T04:28:21;100255.50;;;17.36;73.11
70229;BME280;57617;51.988;5.854;2022-09-09T04:30:47;100256.31;;;17.37;73.04
70229;BME280;57617;51.988;5.854;2022-09-09T04:33:13;100251.94;;;17.36;73.09
70229;BME280;57617;51.988;5.854;2022-09-09T04:35:44;100249.19;;;17.36;73.30
70229;BME280;57617;51.988;5.854;2022-09-09T04:38:09;100254.38;;;17.37;73.16
70229;BME280;57617;51.988;5.854;2022-09-09T04:40:35;100260.69;;;17.38;73.26
70229;BME280;57617;51.988;5.854;2022-09-09T04:43:01;100262.34;;;17.39;73.54
70229;BME280;57617;51.988;5.854;2022-09-09T04:45:29;100249.72;;;17.38;73.39
70229;BME280;57617;51.988;5.854;2022-09-09T04:47:55;100243.38;;;17.37;73.62
70229;BME280;57617;51.988;5.854;2022-09-09T04:50:20;100248.31;;;17.41;73.42
70229;BME280;57617;51.988;5.854;2022-09-09T04:52:45;100245.28;;;17.42;73.58
70229;BME280;57617;51.988;5.854;2022-09-09T04:55:11;100243.38;;;17.37;73.45
70229;BME280;57617;51.988;5.854;2022-09-09T04:57:37;100253.22;;;17.44;73.47
70229;BME280;57617;51.988;5.854;2022-09-09T05:00:03;100259.22;;;17.46;73.43
70229;BME280;57617;51.988;5.854;2022-09-09T05:02:29;100254.84;;;17.45;73.55
70229;BME280;57617;51.988;5.854;2022-09-09T05:04:55;100259.53;;;17.44;73.52
70229;BME280;57617;51.988;5.854;2022-09-09T05:07:21;100253.44;;;17.47;73.21
70229;BME280;57617;51.988;5.854;2022-09-09T05:09:46;100253.16;;;17.49;73.59
70229;BME280;57617;51.988;5.854;2022-09-09T05:12:13;100237.97;;;17.51;73.58
70229;BME280;57617;51.988;5.854;2022-09-09T05:14:38;100248.16;;;17.51;73.71
70229;BME280;57617;51.988;5.854;2022-09-09T05:17:03;100233.94;;;17.49;73.52
70229;BME280;57617;51.988;5.854;2022-09-09T05:19:29;100236.13;;;17.47;73.63
70229;BME280;57617;51.988;5.854;2022-09-09T05:21:56;100240.84;;;17.46;73.94
70229;BME280;57617;51.988;5.854;2022-09-09T05:24:22;100240.50;;;17.48;73.80
70229;BME280;57617;51.988;5.854;2022-09-09T05:26:48;100242.66;;;17.51;74.03
70229;BME280;57617;51.988;5.854;2022-09-09T05:29:13;100241.47;;;17.57;74.06
70229;BME280;57617;51.988;5.854;2022-09-09T05:31:39;100246.38;;;17.60;74.03
70229;BME280;57617;51.988;5.854;2022-09-09T05:34:04;100239.13;;;17.63;74.11
70229;BME280;57617;51.988;5.854;2022-09-09T05:36:29;100240.25;;;17.63;74.09
70229;BME280;57617;51.988;5.854;2022-09-09T05:38:55;100243.53;;;17.65;74.18
70229;BME280;57617;51.988;5.854;2022-09-09T05:41:20;100232.00;;;17.63;74.08
70229;BME280;57617;51.988;5.854;2022-09-09T05:43:47;100241.78;;;17.68;73.99
70229;BME280;57617;51.988;5.854;2022-09-09T05:46:18;100241.50;;;17.70;74.20
70229;BME280;57617;51.988;5.854;2022-09-09T05:48:46;100244.25;;;17.70;74.04
70229;BME280;57617;51.988;5.854;2022-09-09T05:51:14;100238.47;;;17.72;74.12
70229;BME280;57617;51.988;5.854;2022-09-09T05:53:44;100243.94;;;17.72;74.14
70229;BME280;57617;51.988;5.854;2022-09-09T05:56:12;100242.63;;;17.69;73.93
70229;BME280;57617;51.988;5.854;2022-09-09T05:58:39;100244.25;;;17.70;73.68
70229;BME280;57617;51.988;5.854;2022-09-09T06:01:05;100242.63;;;17.69;74.37
70229;BME280;57617;51.988;5.854;2022-09-09T06:03:35;100239.66;;;17.66;74.31
70229;BME280;57617;51.988;5.854;2022-09-09T06:06:03;100250.03;;;17.68;74.21
70229;BME280;57617;51.988;5.854;2022-09-09T06:08:30;100234.97;;;17.66;74.41
70229;BME280;57617;51.988;5.854;2022-09-09T06:11:01;100242.63;;;17.69;74.62
70229;BME280;57617;51.988;5.854;2022-09-09T06:13:28;100233.25;;;17.70;74.29
70229;BME280;57617;51.988;5.854;2022-09-09T06:15:53;100240.38;;;17.71;74.28
70229;BME280;57617;51.988;5.854;2022-09-09T06:18:19;100247.53;;;17.72;74.62
70229;BME280;57617;51.988;5.854;2022-09-09T06:20:58;100239.28;;;17.72;75.01
70229;BME280;57617;51.988;5.854;2022-09-09T06:23:24;100245.56;;;17.73;74.61
70229;BME280;57617;51.988;5.854;2022-09-09T06:25:50;100235.78;;;17.67;74.58
70229;BME280;57617;51.988;5.854;2022-09-09T06:28:16;100245.78;;;17.76;74.72
70229;BME280;57617;51.988;5.854;2022-09-09T06:30:42;100254.75;;;17.82;74.54
70229;BME280;57617;51.988;5.854;2022-09-09T06:33:08;100253.34;;;17.84;74.56
70229;BME280;57617;51.988;5.854;2022-09-09T06:35:34;100249.47;;;17.85;74.77
70229;BME280;57617;51.988;5.854;2022-09-09T06:37:59;100254.75;;;17.82;74.65
70229;BME280;57617;51.988;5.854;2022-09-09T06:40:24;100258.00;;;17.83;74.60
70229;BME280;57617;51.988;5.854;2022-09-09T06:42:50;100254.19;;;17.85;74.49
70229;BME280;57617;51.988;5.854;2022-09-09T06:45:15;100245.09;;;17.84;74.50
70229;BME280;57617;51.988;5.854;2022-09-09T06:47:40;100241.13;;;17.90;75.06
70229;BME280;57617;51.988;5.854;2022-09-09T06:50:07;100244.91;;;17.94;74.86
70229;BME280;57617;51.988;5.854;2022-09-09T06:52:33;100212.81;;;17.76;74.63
70229;BME280;57617;51.988;5.854;2022-09-09T06:54:58;100239.84;;;18.01;74.86
70229;BME280;57617;51.988;5.854;2022-09-09T06:57:24;100243.09;;;18.03;74.40
70229;BME280;57617;51.988;5.854;2022-09-09T06:59:49;100242.19;;;18.08;74.71
70229;BME280;57617;51.988;5.854;2022-09-09T07:02:14;100238.63;;;18.07;74.49
70229;BME280;57617;51.988;5.854;2022-09-09T07:04:40;100246.47;;;18.13;74.57
70229;BME280;57617;51.988;5.854;2022-09-09T07:07:05;100245.34;;;18.14;74.54
70229;BME280;57617;51.988;5.854;2022-09-09T07:09:30;100247.00;;;18.16;74.56
70229;BME280;57617;51.988;5.854;2022-09-09T07:11:56;100254.63;;;18.18;74.28
70229;BME280;57617;51.988;5.854;2022-09-09T07:14:24;100250.75;;;18.19;74.30
70229;BME280;57617;51.988;5.854;2022-09-09T07:16:49;100247.69;;;18.21;74.41
70229;BME280;57617;51.988;5.854;2022-09-09T07:19:14;100252.06;;;18.22;74.04
70229;BME280;57617;51.988;5.854;2022-09-09T07:21:40;100251.19;;;18.27;74.47
70229;BME280;57617;51.988;5.854;2022-09-09T07:24:05;100246.41;;;18.32;74.37
70229;BME280;57617;51.988;5.854;2022-09-09T07:26:35;100249.69;;;18.34;74.30
70229;BME280;57617;51.988;5.854;2022-09-09T07:29:01;100248.75;;;18.39;74.15
70229;BME280;57617;51.988;5.854;2022-09-09T07:31:31;100235.50;;;18.41;74.20
70229;BME280;57617;51.988;5.854;2022-09-09T07:33:58;100244.28;;;18.43;74.16
70229;BME280;57617;51.988;5.854;2022-09-09T07:36:38;100242.44;;;18.52;74.02
70229;BME280;57617;51.988;5.854;2022-09-09T07:39:09;100252.31;;;18.53;74.09
70229;BME280;57617;51.988;5.854;2022-09-09T07:41:40;100247.31;;;18.55;73.55
70229;BME280;57617;51.988;5.854;2022-09-09T07:44:09;100243.88;;;18.63;73.79
70229;BME280;57617;51.988;5.854;2022-09-09T07:46:36;100252.00;;;18.68;73.73
70229;BME280;57617;51.988;5.854;2022-09-09T07:49:02;100249.75;;;18.70;73.38
70229;BME280;57617;51.988;5.854;2022-09-09T07:51:33;100258.84;;;18.70;73.11
70229;BME280;57617;51.988;5.854;2022-09-09T07:54:01;100256.69;;;18.67;73.35
70229;BME280;57617;51.988;5.854;2022-09-09T07:56:27;100243.88;;;18.49;72.85
70229;BME280;57617;51.988;5.854;2022-09-09T07:58:54;100267.19;;;18.65;73.19
70229;BME280;57617;51.988;5.854;2022-09-09T08:01:23;100270.16;;;18.69;73.14
70229;BME280;57617;51.988;5.854;2022-09-09T08:03:59;100264.22;;;18.75;72.83
70229;BME280;57617;51.988;5.854;2022-09-09T08:06:27;100265.56;;;18.78;72.72
70229;BME280;57617;51.988;5.854;2022-09-09T08:08:53;100263.94;;;18.77;72.69
70229;BME280;57617;51.988;5.854;2022-09-09T08:11:20;100261.47;;;18.75;72.19
70229;BME280;57617;51.988;5.854;2022-09-09T08:13:46;100269.75;;;18.75;72.17
70229;BME280;57617;51.988;5.854;2022-09-09T08:16:15;100267.88;;;18.71;71.77
70229;BME280;57617;51.988;5.854;2022-09-09T08:18:41;100259.97;;;18.69;72.09
70229;BME280;57617;51.988;5.854;2022-09-09T08:21:12;100258.84;;;18.70;72.04
70229;BME280;57617;51.988;5.854;2022-09-09T08:23:41;100257.91;;;18.75;71.91
70229;BME280;57617;51.988;5.854;2022-09-09T08:26:11;100256.56;;;18.72;71.74
70229;BME280;57617;51.988;5.854;2022-09-09T08:28:37;100262.91;;;18.73;72.14
70229;BME280;57617;51.988;5.854;2022-09-09T08:33:32;100262.38;;;18.71;71.58
70229;BME280;57617;51.988;5.854;2022-09-09T08:35:58;100282.56;;;18.66;71.49
70229;BME280;57617;51.988;5.854;2022-09-09T08:38:24;100269.31;;;18.68;71.34
70229;BME280;57617;51.988;5.854;2022-09-09T08:40:52;100275.66;;;18.69;71.32
70229;BME280;57617;51.988;5.854;2022-09-09T08:43:24;100270.16;;;18.69;70.96
70229;BME280;57617;51.988;5.854;2022-09-09T08:45:57;100276.66;;;18.73;71.04
70229;BME280;57617;51.988;5.854;2022-09-09T08:48:43;100270.03;;;18.74;71.05
70229;BME280;57617;51.988;5.854;2022-09-09T08:51:13;100279.50;;;18.81;71.28
70229;BME280;57617;51.988;5.854;2022-09-09T08:53:44;100273.91;;;18.86;70.66
70229;BME280;57617;51.988;5.854;2022-09-09T08:56:14;100283.78;;;18.87;70.76
70229;BME280;57617;51.988;5.854;2022-09-09T08:59:01;100273.72;;;18.83;70.55
70229;BME280;57617;51.988;5.854;2022-09-09T09:01:50;100280.53;;;18.85;70.05
70229;BME280;57617;51.988;5.854;2022-09-09T09:07:15;100282.34;;;18.90;70.01
70229;BME280;57617;51.988;5.854;2022-09-09T09:10:18;100285.59;;;18.92;69.10
70229;BME280;57617;51.988;5.854;2022-09-09T09:12:46;100295.69;;;18.96;69.98
70229;BME280;57617;51.988;5.854;2022-09-09T09:15:26;100286.69;;;19.04;69.56
70229;BME280;57617;51.988;5.854;2022-09-09T09:17:53;100297.41;;;19.06;69.62
70229;BME280;57617;51.988;5.854;2022-09-09T09:20:28;100298.22;;;19.06;69.49
70229;BME280;57617;51.988;5.854;2022-09-09T09:23:02;100296.09;;;19.03;69.39
70229;BME280;57617;51.988;5.854;2022-09-09T09:25:34;100302.41;;;19.04;69.06
70229;BME280;57617;51.988;5.854;2022-09-09T09:28:13;100307.94;;;19.04;68.29
70229;BME280;57617;51.988;5.854;2022-09-09T09:30:55;100301.28;;;19.05;68.62
70229;BME280;57617;51.988;5.854;2022-09-09T09:33:32;100299.84;;;19.07;69.18
70229;BME280;57617;51.988;5.854;2022-09-09T09:36:00;100299.84;;;19.07;68.78
70229;BME280;57617;51.988;5.854;2022-09-09T09:38:27;100290.16;;;19.10;69.09
70229;BME280;57617;51.988;5.854;2022-09-09T09:40:57;100296.28;;;19.07;68.69
70229;BME280;57617;51.988;5.854;2022-09-09T09:43:34;100298.22;;;19.06;67.67
70229;BME280;57617;51.988;5.854;2022-09-09T09:45:59;100284.56;;;19.01;68.51
70229;BME280;57617;51.988;5.854;2022-09-09T09:48:27;100296.50;;;19.10;68.42
70229;BME280;57617;51.988;5.854;2022-09-09T09:53:50;100290.34;;;19.27;68.34
70229;BME280;57617;51.988;5.854;2022-09-09T09:56:26;100288.00;;;19.34;67.72
70229;BME280;57617;51.988;5.854;2022-09-09T09:58:53;100276.53;;;19.40;68.00
70229;BME280;57617;51.988;5.854;2022-09-09T10:01:29;100289.50;;;19.40;66.63
70229;BME280;57617;51.988;5.854;2022-09-09T10:04:02;100282.97;;;19.36;67.09
70229;BME280;57617;51.988;5.854;2022-09-09T10:06:36;100288.19;;;19.37;67.33
70229;BME280;57617;51.988;5.854;2022-09-09T10:09:03;100294.50;;;19.38;67.30
70229;BME280;57617;51.988;5.854;2022-09-09T10:11:36;100292.25;;;19.40;67.62
70229;BME280;57617;51.988;5.854;2022-09-09T10:19:31;100286.75;;;19.40;67.34
70229;BME280;57617;51.988;5.854;2022-09-09T10:22:23;100290.75;;;19.34;66.48
70229;BME280;57617;51.988;5.854;2022-09-09T10:31:01;100281.66;;;19.33;66.61
70229;BME280;57617;51.988;5.854;2022-09-09T10:33:50;100289.63;;;19.35;66.46
70229;BME280;57617;51.988;5.854;2022-09-09T10:36:24;100290.63;;;19.39;66.59
70229;BME280;57617;51.988;5.854;2022-09-09T10:39:17;100291.72;;;19.38;65.75
70229;BME280;57617;51.988;5.854;2022-09-09T10:42:07;100290.31;;;19.40;66.66
70229;BME280;57617;51.988;5.854;2022-09-09T10:49:55;100292.75;;;19.42;66.89
70229;BME280;57617;51.988;5.854;2022-09-09T10:52:32;100290.81;;;19.42;66.38
70229;BME280;57617;51.988;5.854;2022-09-09T10:57:55;100288.63;;;19.53;66.01
70229;BME280;57617;51.988;5.854;2022-09-09T11:02:58;100294.53;;;19.60;66.35
70229;BME280;57617;51.988;5.854;2022-09-09T11:05:52;100300.03;;;19.60;66.25
70229;BME280;57617;51.988;5.854;2022-09-09T11:08:21;100288.13;;;19.51;66.91
70229;BME280;57617;51.988;5.854;2022-09-09T11:13:23;100285.00;;;19.44;67.88
70229;BME280;57617;51.988;5.854;2022-09-09T11:15:54;100295.50;;;19.42;67.99
70229;BME280;57617;51.988;5.854;2022-09-09T11:18:23;100308.78;;;19.40;67.83
70229;BME280;57617;51.988;5.854;2022-09-09T11:20:53;100314.22;;;19.31;68.52
70229;BME280;57617;51.988;5.854;2022-09-09T11:23:25;100310.34;;;19.19;69.12
70229;BME280;57617;51.988;5.854;2022-09-09T11:25:56;100303.50;;;19.16;70.30
70229;BME280;57617;51.988;5.854;2022-09-09T11:28:50;100301.47;;;19.22;70.98
70229;BME280;57617;51.988;5.854;2022-09-09T11:37:02;100298.19;;;19.33;71.25
70229;BME280;57617;51.988;5.854;2022-09-09T11:39:54;100291.56;;;19.34;71.71
70229;BME280;57617;51.988;5.854;2022-09-09T11:42:24;100287.16;;;19.33;71.11
70229;BME280;57617;51.988;5.854;2022-09-09T11:44:50;100288.19;;;19.37;71.08
70229;BME280;57617;51.988;5.854;2022-09-09T11:47:22;100295.94;;;19.35;70.88
70229;BME280;57617;51.988;5.854;2022-09-09T11:49:51;100293.50;;;19.34;70.94
70229;BME280;57617;51.988;5.854;2022-09-09T11:54:49;100286.34;;;19.33;70.65
70229;BME280;57617;51.988;5.854;2022-09-09T11:57:32;100293.50;;;19.34;70.92
70229;BME280;57617;51.988;5.854;2022-09-09T12:00:00;100290.41;;;19.35;70.68
70229;BME280;57617;51.988;5.854;2022-09-09T12:02:27;100292.88;;;19.37;70.93
70229;BME280;57617;51.988;5.854;2022-09-09T12:05:09;100295.50;;;19.42;71.28
70229;BME280;57617;51.988;5.854;2022-09-09T12:07:49;100292.81;;;19.50;71.14
70229;BME280;57617;51.988;5.854;2022-09-09T12:10:30;100288.31;;;19.54;70.31
70229;BME280;57617;51.988;5.854;2022-09-09T12:15:50;100298.53;;;19.54;69.90
70229;BME280;57617;51.988;5.854;2022-09-09T12:18:45;100286.00;;;19.48;70.36
70229;BME280;57617;51.988;5.854;2022-09-09T12:21:37;100288.44;;;19.49;70.40
70229;BME280;57617;51.988;5.854;2022-09-09T12:24:11;100293.03;;;19.54;70.65
70229;BME280;57617;51.988;5.854;2022-09-09T12:32:04;100294.00;;;19.58;70.30
70229;BME280;57617;51.988;5.854;2022-09-09T12:34:38;100292.09;;;19.58;69.97
70229;BME280;57617;51.988;5.854;2022-09-09T12:37:28;100294.97;;;19.53;69.72
70229;BME280;57617;51.988;5.854;2022-09-09T12:39:58;100285.56;;;19.54;70.42
70229;BME280;57617;51.988;5.854;2022-09-09T12:42:25;100281.06;;;19.58;69.79
70229;BME280;57617;51.988;5.854;2022-09-09T12:45:01;100277.22;;;19.68;70.16
70229;BME280;57617;51.988;5.854;2022-09-09T12:50:26;100287.00;;;19.74;69.81
70229;BME280;57617;51.988;5.854;2022-09-09T12:52:58;100263.75;;;19.66;69.21
70229;BME280;57617;51.988;5.854;2022-09-09T12:55:28;100268.47;;;19.66;68.99
70229;BME280;57617;51.988;5.854;2022-09-09T12:57:56;100272.84;;;19.67;69.28
70229;BME280;57617;51.988;5.854;2022-09-09T13:00:23;100267.81;;;19.69;69.36
70229;BME280;57617;51.988;5.854;2022-09-09T13:02:54;100261.41;;;19.73;69.61
70229;BME280;57617;51.988;5.854;2022-09-09T13:05:24;100258.81;;;19.77;69.53
70229;BME280;57617;51.988;5.854;2022-09-09T13:07:50;100261.75;;;19.80;69.55
70229;BME280;57617;51.988;5.854;2022-09-09T13:10:26;100279.13;;;19.81;69.58
70229;BME280;57617;51.988;5.854;2022-09-09T13:12:52;100267.41;;;19.75;69.72
70229;BME280;57617;51.988;5.854;2022-09-09T13:15:23;100265.94;;;19.78;70.47
70229;BME280;57617;51.988;5.854;2022-09-09T13:17:53;100269.22;;;19.80;70.32
70229;BME280;57617;51.988;5.854;2022-09-09T13:20:20;100260.31;;;19.83;70.37
70229;BME280;57617;51.988;5.854;2022-09-09T13:22:47;100255.50;;;19.88;70.15
70229;BME280;57617;51.988;5.854;2022-09-09T13:25:20;100249.72;;;19.98;70.28
70229;BME280;57617;51.988;5.854;2022-09-09T13:28:03;100248.75;;;20.03;69.80
70229;BME280;57617;51.988;5.854;2022-09-09T13:30:31;100254.44;;;20.06;69.80
70229;BME280;57617;51.988;5.854;2022-09-09T13:33:23;100254.03;;;20.13;69.10
70229;BME280;57617;51.988;5.854;2022-09-09T13:35:54;100259.41;;;20.18;69.27
70229;BME280;57617;51.988;5.854;2022-09-09T13:38:20;100241.25;;;20.17;69.64
70229;BME280;57617;51.988;5.854;2022-09-09T13:41:19;100247.75;;;20.21;68.80
70229;BME280;57617;51.988;5.854;2022-09-09T13:43:47;100241.06;;;20.13;68.50
70229;BME280;57617;51.988;5.854;2022-09-09T13:46:37;100244.13;;;20.12;68.51
70229;BME280;57617;51.988;5.854;2022-09-09T13:51:44;100237.00;;;20.11;68.29
70229;BME280;57617;51.988;5.854;2022-09-09T13:54:13;100242.50;;;20.11;68.52
70229;BME280;57617;51.988;5.854;2022-09-09T13:56:41;100248.50;;;20.13;68.61
70229;BME280;57617;51.988;5.854;2022-09-09T13:59:11;100245.06;;;20.07;68.33
70229;BME280;57617;51.988;5.854;2022-09-09T14:01:37;100235.09;;;19.98;68.56
70229;BME280;57617;51.988;5.854;2022-09-09T14:04:03;100246.66;;;20.00;68.45
70229;BME280;57617;51.988;5.854;2022-09-09T14:06:29;100245.81;;;19.99;68.67
70229;BME280;57617;51.988;5.854;2022-09-09T14:08:54;100254.91;;;20.00;68.59
70229;BME280;57617;51.988;5.854;2022-09-09T14:11:20;100243.13;;;20.08;68.50
70229;BME280;57617;51.988;5.854;2022-09-09T14:13:46;100245.44;;;20.14;68.06
70229;BME280;57617;51.988;5.854;2022-09-09T14:16:12;100241.84;;;20.14;67.74
70229;BME280;57617;51.988;5.854;2022-09-09T14:18:37;100245.75;;;20.13;67.37
70229;BME280;57617;51.988;5.854;2022-09-09T14:21:03;100252.41;;;20.12;67.47
70229;BME280;57617;51.988;5.854;2022-09-09T14:23:29;100258.84;;;20.07;67.38
70229;BME280;57617;51.988;5.854;2022-09-09T14:25:55;100248.94;;;20.06;67.29
70229;BME280;57617;51.988;5.854;2022-09-09T14:28:20;100244.69;;;20.00;67.38
70229;BME280;57617;51.988;5.854;2022-09-09T14:30:45;100256.41;;;20.06;67.36